createdAt,value
2019-02-21T00:01:43.165Z,95697.16
2019-02-21T00:04:10.654Z,95692.74
2019-02-21T00:06:38.156Z,95699.55
2019-02-21T00:09:06.521Z,95563.41
2019-02-21T00:11:34.071Z,95695.65
2019-02-21T00:14:01.437Z,95693.11
2019-02-21T00:16:28.990Z,95691.60
2019-02-21T00:18:56.454Z,95694.39
2019-02-21T00:21:23.894Z,95690.41
2019-02-21T00:23:51.316Z,95689.04
2019-02-21T00:26:18.736Z,95687.56
2019-02-21T00:28:46.116Z,95697.98
2019-02-21T00:31:13.586Z,95691.36
2019-02-21T00:33:41.007Z,95693.13
2019-02-21T00:36:08.462Z,95694.11
2019-02-21T00:38:35.856Z,95688.16
2019-02-21T00:41:03.865Z,95687.11
2019-02-21T00:43:31.368Z,95687.56
2019-02-21T00:45:58.781Z,95681.80
2019-02-21T00:48:26.340Z,95682.01
2019-02-21T00:50:53.775Z,95660.79
2019-02-21T00:53:21.353Z,95699.21
2019-02-21T00:55:48.792Z,95681.84
2019-02-21T00:58:16.187Z,95673.88
2019-02-21T01:00:46.448Z,95682.02
2019-02-21T01:03:13.064Z,95680.38
2019-02-21T01:05:40.473Z,95672.59
2019-02-21T01:08:08.239Z,95684.87
2019-02-21T01:10:35.776Z,95676.34
2019-02-21T01:13:03.346Z,95666.17
2019-02-21T01:15:30.837Z,95660.31
2019-02-21T01:17:58.309Z,95668.50
2019-02-21T01:20:25.813Z,95657.28
2019-02-21T01:22:53.276Z,95662.06
2019-02-21T01:25:20.711Z,95660.36
2019-02-21T01:27:48.227Z,95662.64
2019-02-21T01:30:15.707Z,95669.20
2019-02-21T01:32:43.185Z,95672.83
2019-02-21T01:35:10.609Z,95662.64
2019-02-21T01:37:38.070Z,95657.54
2019-02-21T01:40:05.757Z,95661.66
2019-02-21T01:42:33.205Z,95654.67
2019-02-21T01:45:00.581Z,95658.88
2019-02-21T01:47:28.026Z,95664.69
2019-02-21T01:49:55.596Z,95667.72
2019-02-21T01:52:23.069Z,95662.95
2019-02-21T01:54:50.645Z,95664.83
2019-02-21T01:57:18.091Z,95664.64
2019-02-21T01:59:45.637Z,95660.84
2019-02-21T02:02:13.060Z,95662.34
2019-02-21T02:04:40.482Z,95653.46
2019-02-21T02:07:07.915Z,95659.56
2019-02-21T02:09:35.409Z,95665.20
2019-02-21T02:12:02.867Z,95663.81
2019-02-21T02:14:30.333Z,95666.87
2019-02-21T02:16:57.703Z,95669.79
2019-02-21T02:19:25.180Z,95668.69
2019-02-21T02:21:52.651Z,95669.19
2019-02-21T02:24:20.084Z,95677.87
2019-02-21T02:26:47.553Z,95676.45
2019-02-21T02:29:15.023Z,95680.45
2019-02-21T02:31:42.463Z,95690.48
2019-02-21T02:34:09.901Z,95688.20
2019-02-21T02:36:37.364Z,95681.67
2019-02-21T02:39:05.197Z,95679.72
2019-02-21T02:41:32.792Z,95679.03
2019-02-21T02:44:00.284Z,95677.97
2019-02-21T02:46:27.720Z,95662.34
2019-02-21T02:48:55.189Z,95673.60
2019-02-21T02:51:22.616Z,95673.89
2019-02-21T02:53:50.054Z,95675.69
2019-02-21T02:56:17.632Z,95677.88
2019-02-21T02:58:45.725Z,95674.47
2019-02-21T03:01:13.298Z,95672.18
2019-02-21T03:03:40.754Z,95679.15
2019-02-21T03:06:08.131Z,95684.30
2019-02-21T03:08:35.562Z,95689.09
2019-02-21T03:11:02.998Z,95690.31
2019-02-21T03:13:30.470Z,95692.42
2019-02-21T03:15:57.902Z,95698.91
2019-02-21T03:18:25.348Z,95698.84
2019-02-21T03:20:52.717Z,95695.07
2019-02-21T03:23:20.163Z,95699.64
2019-02-21T03:25:47.767Z,95707.75
2019-02-21T03:28:15.213Z,95715.52
2019-02-21T03:30:42.649Z,95718.22
2019-02-21T03:33:10.136Z,95729.25
2019-02-21T03:35:37.569Z,95732.05
2019-02-21T03:38:04.992Z,95738.02
2019-02-21T03:40:32.509Z,95742.03
2019-02-21T03:42:59.952Z,95736.67
2019-02-21T03:45:27.393Z,95735.69
2019-02-21T03:47:54.794Z,95742.50
2019-02-21T03:50:22.233Z,95750.30
2019-02-21T03:52:49.676Z,95753.08
2019-02-21T03:55:17.104Z,95751.34
2019-02-21T03:57:44.687Z,95748.19
2019-02-21T04:00:12.238Z,95738.15
2019-02-21T04:02:39.693Z,95746.28
2019-02-21T04:05:07.312Z,95753.83
2019-02-21T04:07:34.725Z,95770.61
2019-02-21T04:10:02.282Z,95767.61
2019-02-21T04:12:29.671Z,95768.78
2019-02-21T04:14:57.136Z,95761.84
2019-02-21T04:17:24.537Z,95762.93
2019-02-21T04:19:51.959Z,95773.91
2019-02-21T04:22:19.428Z,95783.90
2019-02-21T04:24:46.795Z,95787.78
2019-02-21T04:27:14.296Z,95780.73
2019-02-21T04:29:41.790Z,95788.41
2019-02-21T04:32:16.929Z,95791.48
2019-02-21T04:34:38.683Z,95794.19
2019-02-21T04:37:06.201Z,95798.71
2019-02-21T04:39:33.710Z,95790.78
2019-02-21T04:42:01.179Z,95798.25
2019-02-21T04:44:28.674Z,95797.30
2019-02-21T04:46:56.155Z,95783.76
2019-02-21T04:49:23.551Z,95787.44
2019-02-21T04:51:50.969Z,95793.02
2019-02-21T04:54:18.478Z,95789.39
2019-02-21T04:56:45.835Z,95796.45
2019-02-21T04:59:13.376Z,95795.41
2019-02-21T05:01:40.845Z,95795.21
2019-02-21T05:04:08.239Z,95807.55
2019-02-21T05:06:35.670Z,95793.16
2019-02-21T05:09:07.276Z,95798.92
2019-02-21T05:11:33.833Z,95800.72
2019-02-21T05:14:01.278Z,95807.38
2019-02-21T05:16:28.688Z,95799.84
2019-02-21T05:18:56.170Z,95801.77
2019-02-21T05:21:23.627Z,95821.94
2019-02-21T05:23:51.054Z,95823.25
2019-02-21T05:26:24.302Z,95809.25
2019-02-21T05:28:51.843Z,95812.01
2019-02-21T05:31:47.813Z,95811.48
2019-02-21T05:34:34.807Z,95821.98
2019-02-21T05:37:11.386Z,95826.73
2019-02-21T05:39:57.991Z,95828.55
2019-02-21T05:42:54.021Z,95833.00
2019-02-21T05:45:27.545Z,95834.20
2019-02-21T05:48:11.597Z,95843.53
2019-02-21T05:50:54.601Z,95849.66
2019-02-21T05:53:39.652Z,95854.20
2019-02-21T05:56:42.080Z,95853.23
2019-02-21T05:59:28.001Z,95860.88
2019-02-21T06:02:14.980Z,95864.28
2019-02-21T06:05:01.968Z,95872.90
2019-02-21T06:07:35.710Z,95865.00
2019-02-21T06:10:19.630Z,95872.44
2019-02-21T06:12:59.921Z,95878.88
2019-02-21T06:15:37.879Z,95875.39
2019-02-21T06:18:40.312Z,95880.09
2019-02-21T06:21:27.285Z,95878.66
2019-02-21T06:24:13.409Z,95880.27
2019-02-21T06:27:03.265Z,95883.12
2019-02-21T06:29:39.942Z,95900.89
2019-02-21T06:32:14.281Z,95899.86
2019-02-21T06:34:36.798Z,95906.62
2019-02-21T06:37:04.271Z,95902.73
2019-02-21T06:39:31.713Z,95906.23
2019-02-21T06:42:00.281Z,95903.38
2019-02-21T06:44:28.046Z,95906.21
2019-02-21T06:46:55.506Z,95913.23
2019-02-21T06:49:32.145Z,95917.06
2019-02-21T06:51:52.456Z,95919.09
2019-02-21T06:54:22.474Z,95919.44
2019-02-21T06:56:49.654Z,95927.02
2019-02-21T06:59:17.164Z,95934.04
2019-02-21T07:01:44.557Z,95937.22
2019-02-21T07:04:12.189Z,95931.83
2019-02-21T07:06:40.330Z,95931.83
2019-02-21T07:09:07.753Z,95926.93
2019-02-21T07:11:35.228Z,95939.11
2019-02-21T07:14:02.867Z,95941.62
2019-02-21T07:16:30.426Z,95942.14
2019-02-21T07:18:57.922Z,95943.77
2019-02-21T07:21:25.430Z,95946.27
2019-02-21T07:23:53.290Z,95945.82
2019-02-21T07:26:20.790Z,95954.96
2019-02-21T07:28:49.107Z,95950.61
2019-02-21T07:31:27.796Z,95935.97
2019-02-21T07:33:48.290Z,95955.36
2019-02-21T07:36:17.422Z,95949.44
2019-02-21T07:38:44.925Z,95958.83
2019-02-21T07:41:13.401Z,95956.51
2019-02-21T07:43:42.246Z,95952.56
2019-02-21T07:46:09.924Z,95955.77
2019-02-21T07:48:37.497Z,95965.78
2019-02-21T07:51:05.202Z,95949.67
2019-02-21T07:53:32.767Z,95947.12
2019-02-21T07:56:00.319Z,95956.39
2019-02-21T07:58:27.876Z,95957.12
2019-02-21T08:00:55.419Z,95963.13
2019-02-21T08:03:31.882Z,95958.09
2019-02-21T08:05:52.240Z,95967.86
2019-02-21T08:08:21.029Z,95976.87
2019-02-21T08:10:48.842Z,95972.44
2019-02-21T08:13:16.307Z,95964.26
2019-02-21T08:15:43.814Z,95963.11
2019-02-21T08:18:11.425Z,95969.54
2019-02-21T08:20:41.080Z,95968.94
2019-02-21T08:23:10.889Z,95969.97
2019-02-21T08:25:38.465Z,95966.30
2019-02-21T08:28:05.984Z,95961.93
2019-02-21T08:30:33.435Z,95957.38
2019-02-21T08:33:11.912Z,95961.29
2019-02-21T08:35:39.365Z,95968.16
2019-02-21T08:38:06.742Z,95962.76
2019-02-21T08:40:34.161Z,95955.60
2019-02-21T08:43:03.970Z,95960.59
2019-02-21T08:45:30.987Z,95968.33
2019-02-21T08:47:58.361Z,95973.62
2019-02-21T08:50:25.824Z,95968.68
2019-02-21T08:52:53.258Z,95973.47
2019-02-21T08:55:20.757Z,95971.03
2019-02-21T08:57:48.243Z,95970.50
2019-02-21T09:00:15.987Z,95983.87
2019-02-21T09:02:43.585Z,95974.94
2019-02-21T09:05:11.610Z,95978.23
2019-02-21T09:07:39.170Z,95981.88
2019-02-21T09:10:08.053Z,95956.94
2019-02-21T09:12:35.434Z,95973.14
2019-02-21T09:15:03.032Z,95973.86
2019-02-21T09:17:32.211Z,95972.73
2019-02-21T09:19:59.805Z,95979.50
2019-02-21T09:22:27.273Z,95972.91
2019-02-21T09:24:54.717Z,95976.11
2019-02-21T09:27:22.054Z,95968.63
2019-02-21T09:29:49.585Z,95966.63
2019-02-21T09:32:17.027Z,95955.19
2019-02-21T09:34:44.425Z,95965.63
2019-02-21T09:37:11.901Z,95964.56
2019-02-21T09:39:39.347Z,95956.97
2019-02-21T09:42:06.793Z,95959.78
2019-02-21T09:44:35.917Z,95953.87
2019-02-21T09:47:03.714Z,95954.46
2019-02-21T09:49:31.209Z,95945.50
2019-02-21T09:51:58.798Z,95958.03
2019-02-21T09:54:26.298Z,95960.56
2019-02-21T09:56:53.827Z,95959.80
2019-02-21T09:59:21.290Z,95952.61
2019-02-21T10:01:48.713Z,95958.44
2019-02-21T10:04:16.124Z,95956.33
2019-02-21T10:06:43.575Z,95952.96
2019-02-21T10:09:11.061Z,95953.89
2019-02-21T10:11:38.513Z,95949.86
2019-02-21T10:14:05.977Z,95941.20
2019-02-21T10:16:33.542Z,95942.81
2019-02-21T10:19:01.020Z,95941.28
2019-02-21T10:21:28.519Z,95933.20
2019-02-21T10:23:56.869Z,95932.38
2019-02-21T10:26:24.547Z,95922.39
2019-02-21T10:28:52.053Z,95927.51
2019-02-21T10:31:19.528Z,95930.42
2019-02-21T10:33:47.505Z,95926.72
2019-02-21T10:36:15.120Z,95921.41
2019-02-21T10:38:42.640Z,95920.17
2019-02-21T10:41:10.666Z,95916.47
2019-02-21T10:43:38.159Z,95922.44
2019-02-21T10:46:05.672Z,95917.78
2019-02-21T10:48:33.131Z,95913.83
2019-02-21T10:51:00.617Z,95912.05
2019-02-21T10:53:28.215Z,95890.64
2019-02-21T10:55:55.812Z,95890.81
2019-02-21T10:58:23.341Z,95891.83
2019-02-21T11:00:50.786Z,95882.05
2019-02-21T11:03:18.257Z,95881.46
2019-02-21T11:05:45.836Z,95878.36
2019-02-21T11:08:13.263Z,95875.77
2019-02-21T11:10:40.862Z,95870.69
2019-02-21T11:13:08.370Z,95864.87
2019-02-21T11:15:35.845Z,95863.23
2019-02-21T11:18:03.349Z,95850.12
2019-02-21T11:20:30.851Z,95840.81
2019-02-21T11:22:58.283Z,95841.81
2019-02-21T11:25:25.760Z,95840.48
2019-02-21T11:27:53.221Z,95836.12
2019-02-21T11:30:20.988Z,95830.64
2019-02-21T11:32:48.610Z,95827.92
2019-02-21T11:35:16.571Z,95831.52
2019-02-21T11:37:46.879Z,95826.75
2019-02-21T11:40:14.434Z,95826.05
2019-02-21T11:42:41.973Z,95833.73
2019-02-21T11:45:12.190Z,95826.98
2019-02-21T11:47:39.656Z,95820.69
2019-02-21T11:50:11.092Z,95816.63
2019-02-21T11:52:38.618Z,95817.53
2019-02-21T11:55:07.202Z,95808.48
2019-02-21T11:57:34.623Z,95806.80
2019-02-21T12:00:02.223Z,95812.34
2019-02-21T12:02:38.573Z,95801.70
2019-02-21T12:04:59.068Z,95800.41
2019-02-21T12:07:26.470Z,95803.91
2019-02-21T12:09:54.003Z,95800.41
2019-02-21T12:12:21.460Z,95795.06
2019-02-21T12:14:48.987Z,95794.22
2019-02-21T12:17:16.888Z,95788.56
2019-02-21T12:19:44.308Z,95789.13
2019-02-21T12:22:11.875Z,95798.84
2019-02-21T12:24:39.458Z,95789.48
2019-02-21T12:27:06.877Z,95789.23
2019-02-21T12:29:34.537Z,95780.09
2019-02-21T12:32:02.072Z,95782.66
2019-02-21T12:34:29.440Z,95786.16
2019-02-21T12:36:56.890Z,95781.66
2019-02-21T12:39:24.373Z,95776.09
2019-02-21T12:41:51.935Z,95797.83
2019-02-21T12:44:19.444Z,95785.43
2019-02-21T12:46:46.940Z,95793.93
2019-02-21T12:49:14.405Z,95783.02
2019-02-21T12:51:41.873Z,95781.06
2019-02-21T12:54:09.435Z,95773.05
2019-02-21T12:56:37.067Z,95785.95
2019-02-21T12:59:04.805Z,95778.28
2019-02-21T13:01:32.317Z,95783.03
2019-02-21T13:04:00.053Z,95779.75
2019-02-21T13:06:27.605Z,95765.06
2019-02-21T13:08:55.076Z,95769.69
2019-02-21T13:11:22.576Z,95760.86
2019-02-21T13:13:49.988Z,95764.33
2019-02-21T13:16:17.462Z,95760.14
2019-02-21T13:18:44.973Z,95764.91
2019-02-21T13:21:12.444Z,95778.87
2019-02-21T13:23:42.774Z,95758.63
2019-02-21T13:26:09.377Z,95764.80
2019-02-21T13:28:36.872Z,95757.67
2019-02-21T13:31:04.423Z,95760.73
2019-02-21T13:33:31.932Z,95756.19
2019-02-21T13:35:59.434Z,95763.64
2019-02-21T13:38:26.994Z,95751.66
2019-02-21T13:40:54.330Z,95749.79
2019-02-21T13:43:21.765Z,95754.59
2019-02-21T13:45:49.240Z,95745.95
2019-02-21T13:48:16.697Z,95747.32
2019-02-21T13:50:44.109Z,95754.64
2019-02-21T13:53:11.642Z,95744.45
2019-02-21T13:55:39.143Z,95751.72
2019-02-21T13:58:06.780Z,95743.25
2019-02-21T14:00:34.287Z,95746.21
2019-02-21T14:03:02.230Z,95749.89
2019-02-21T14:05:29.701Z,95735.31
2019-02-21T14:07:57.172Z,95752.51
2019-02-21T14:10:24.773Z,95748.92
2019-02-21T14:12:52.425Z,95756.00
2019-02-21T14:15:21.999Z,95746.83
2019-02-21T14:17:49.771Z,95748.10
2019-02-21T14:20:17.322Z,95748.30
2019-02-21T14:22:44.964Z,95731.03
2019-02-21T14:25:12.469Z,95728.19
2019-02-21T14:27:40.114Z,95732.32
2019-02-21T14:30:10.372Z,95727.44
2019-02-21T14:32:37.954Z,95731.90
2019-02-21T14:35:11.883Z,95720.92
2019-02-21T14:37:39.389Z,95723.67
2019-02-21T14:40:08.787Z,95732.36
2019-02-21T14:42:36.241Z,95724.95
2019-02-21T14:45:04.181Z,95726.59
2019-02-21T14:47:31.747Z,95723.93
2019-02-21T14:49:59.165Z,95718.94
2019-02-21T14:52:26.729Z,95725.21
2019-02-21T14:54:54.187Z,95725.36
2019-02-21T14:57:21.757Z,95721.93
2019-02-21T14:59:49.941Z,95727.92
2019-02-21T15:02:17.394Z,95722.88
2019-02-21T15:04:44.876Z,95726.02
2019-02-21T15:07:12.363Z,95717.10
2019-02-21T15:09:39.845Z,95721.31
2019-02-21T15:12:07.387Z,95712.48
2019-02-21T15:14:34.780Z,95712.77
2019-02-21T15:17:03.812Z,95714.53
2019-02-21T15:19:31.645Z,95720.78
2019-02-21T15:21:59.171Z,95717.22
2019-02-21T15:24:26.725Z,95719.66
2019-02-21T15:26:54.129Z,95715.81
2019-02-21T15:29:21.672Z,95718.38
2019-02-21T15:31:49.202Z,95716.95
2019-02-21T15:34:16.777Z,95717.09
2019-02-21T15:36:44.265Z,95714.72
2019-02-21T15:39:11.736Z,95718.16
2019-02-21T15:41:39.225Z,95712.44
2019-02-21T15:44:06.711Z,95719.55
2019-02-21T15:46:34.217Z,95724.48
2019-02-21T15:49:01.700Z,95722.09
2019-02-21T15:51:29.096Z,95710.77
2019-02-21T15:53:56.590Z,95715.97
2019-02-21T15:56:24.073Z,95716.55
2019-02-21T15:58:51.532Z,95711.15
2019-02-21T16:01:19.176Z,95718.63
2019-02-21T16:03:46.785Z,95721.01
2019-02-21T16:06:14.192Z,95715.55
2019-02-21T16:08:41.697Z,95716.06
2019-02-21T16:11:09.371Z,95713.92
2019-02-21T16:13:37.266Z,95715.44
2019-02-21T16:16:05.291Z,95718.48
2019-02-21T16:18:32.953Z,95721.72
2019-02-21T16:21:00.443Z,95719.23
2019-02-21T16:23:27.833Z,95725.96
2019-02-21T16:25:55.309Z,95726.24
2019-02-21T16:28:22.772Z,95732.07
2019-02-21T16:30:50.772Z,95738.10
2019-02-21T16:33:18.201Z,95742.98
2019-02-21T16:35:45.781Z,95740.61
2019-02-21T16:38:13.237Z,95734.97
2019-02-21T16:40:40.885Z,95737.41
2019-02-21T16:43:08.488Z,95742.63
2019-02-21T16:45:43.540Z,95745.20
2019-02-21T16:48:05.317Z,95758.35
2019-02-21T16:50:32.788Z,95748.30
2019-02-21T16:53:00.245Z,95758.09
2019-02-21T16:55:27.743Z,95757.33
2019-02-21T16:57:55.275Z,95763.92
2019-02-21T17:00:22.842Z,95757.75
2019-02-21T17:02:50.453Z,95768.30
2019-02-21T17:05:18.050Z,95769.98
2019-02-21T17:07:45.488Z,95763.94
2019-02-21T17:10:13.606Z,95772.04
2019-02-21T17:12:41.048Z,95772.88
2019-02-21T17:15:09.685Z,95772.38
2019-02-21T17:17:37.131Z,95764.59
2019-02-21T17:20:05.649Z,95775.23
2019-02-21T17:22:33.174Z,95759.88
2019-02-21T17:25:00.647Z,95764.83
2019-02-21T17:27:28.058Z,95767.11
2019-02-21T17:29:55.542Z,95763.48
2019-02-21T17:32:23.074Z,95764.66
2019-02-21T17:34:51.000Z,95768.97
2019-02-21T17:37:24.863Z,95768.45
2019-02-21T17:39:47.974Z,95767.53
2019-02-21T17:42:15.454Z,95775.23
2019-02-21T17:44:42.897Z,95772.70
2019-02-21T17:47:10.347Z,95765.70
2019-02-21T17:49:37.919Z,95770.83
2019-02-21T17:52:05.468Z,95768.32
2019-02-21T17:54:32.950Z,95769.83
2019-02-21T17:57:01.886Z,95766.78
2019-02-21T17:59:29.523Z,95762.05
2019-02-21T18:01:57.045Z,95773.72
2019-02-21T18:04:24.711Z,95769.16
2019-02-21T18:06:52.197Z,95752.12
2019-02-21T18:09:19.686Z,95765.69
2019-02-21T18:11:49.233Z,95764.41
2019-02-21T18:14:16.746Z,95768.45
2019-02-21T18:16:45.147Z,95764.09
2019-02-21T18:19:12.679Z,95760.88
2019-02-21T18:21:40.509Z,95767.13
2019-02-21T18:24:08.584Z,95758.84
2019-02-21T18:26:36.612Z,95759.94
2019-02-21T18:29:05.301Z,95760.36
2019-02-21T18:31:33.013Z,95759.55
2019-02-21T18:34:00.620Z,95759.36
2019-02-21T18:36:28.218Z,95759.01
2019-02-21T18:38:55.784Z,95753.61
2019-02-21T18:41:24.100Z,95762.73
2019-02-21T18:43:52.329Z,95762.19
2019-02-21T18:46:19.798Z,95755.79
2019-02-21T18:48:47.353Z,95760.09
2019-02-21T18:51:14.939Z,95769.34
2019-02-21T18:53:42.411Z,95753.45
2019-02-21T18:56:10.362Z,95761.88
2019-02-21T18:58:37.887Z,95758.40
2019-02-21T19:01:05.870Z,95766.39
2019-02-21T19:03:33.298Z,95763.37
2019-02-21T19:06:01.522Z,95773.80
2019-02-21T19:08:29.202Z,95760.44
2019-02-21T19:10:56.643Z,95765.17
2019-02-21T19:13:24.159Z,95766.38
2019-02-21T19:15:51.795Z,95761.38
2019-02-21T19:18:19.484Z,95760.40
2019-02-21T19:20:47.571Z,95757.61
2019-02-21T19:23:15.045Z,95762.98
2019-02-21T19:25:42.540Z,95761.26
2019-02-21T19:28:09.998Z,95755.92
2019-02-21T19:30:41.945Z,95763.16
2019-02-21T19:33:09.800Z,95753.69
2019-02-21T19:35:37.330Z,95768.25
2019-02-21T19:38:10.570Z,95761.85
2019-02-21T19:40:35.062Z,95761.95
2019-02-21T19:43:02.589Z,95765.42
2019-02-21T19:45:30.396Z,95770.11
2019-02-21T19:47:57.847Z,95768.84
2019-02-21T19:50:26.018Z,95771.85
2019-02-21T19:52:53.745Z,95766.45
2019-02-21T19:55:21.954Z,95773.16
2019-02-21T19:57:49.782Z,95778.41
2019-02-21T20:00:19.589Z,95778.78
2019-02-21T20:02:47.228Z,95777.06
2019-02-21T20:05:14.991Z,95767.80
2019-02-21T20:07:42.567Z,95770.56
2019-02-21T20:10:10.263Z,95767.95
2019-02-21T20:12:38.173Z,95764.92
2019-02-21T20:15:20.846Z,95764.02
2019-02-21T20:17:49.539Z,95762.55
2019-02-21T20:20:17.497Z,95758.38
2019-02-21T20:22:45.078Z,95747.70
2019-02-21T20:25:13.109Z,95747.97
2019-02-21T20:27:40.739Z,95752.44
2019-02-21T20:30:10.828Z,95752.27
2019-02-21T20:32:38.474Z,95745.42
2019-02-21T20:35:06.171Z,95745.94
2019-02-21T20:37:33.807Z,95748.95
2019-02-21T20:40:01.375Z,95745.51
2019-02-21T20:42:31.353Z,95743.92
2019-02-21T20:44:58.351Z,95746.62
2019-02-21T20:47:25.858Z,95758.16
2019-02-21T20:49:53.435Z,95740.90
2019-02-21T20:52:21.114Z,95738.77
2019-02-21T20:54:48.773Z,95737.56
2019-02-21T20:57:16.127Z,95738.88
2019-02-21T20:59:43.701Z,95731.84
2019-02-21T21:02:11.373Z,95726.20
2019-02-21T21:04:38.828Z,95719.06
2019-02-21T21:07:06.296Z,95727.95
2019-02-21T21:09:34.255Z,95718.85
2019-02-21T21:12:01.836Z,95712.09
2019-02-21T21:14:29.352Z,95707.61
2019-02-21T21:16:56.849Z,95706.01
2019-02-21T21:19:24.282Z,95695.67
2019-02-21T21:21:51.751Z,95705.35
2019-02-21T21:24:19.189Z,95700.19
2019-02-21T21:26:46.718Z,95698.08
2019-02-21T21:29:14.188Z,95699.87
2019-02-21T21:31:41.603Z,95700.69
2019-02-21T21:34:09.100Z,95704.48
2019-02-21T21:36:36.647Z,95694.70
2019-02-21T21:39:04.740Z,95695.70
2019-02-21T21:41:32.328Z,95703.17
2019-02-21T21:43:59.867Z,95702.31
2019-02-21T21:46:27.358Z,95703.09
2019-02-21T21:48:54.832Z,95700.56
2019-02-21T21:51:22.604Z,95704.08
2019-02-21T21:53:50.121Z,95701.38
2019-02-21T21:56:17.683Z,95702.14
2019-02-21T21:58:45.495Z,95700.97
2019-02-21T22:01:13.075Z,95698.42
2019-02-21T22:03:40.692Z,95713.82
2019-02-21T22:06:08.134Z,95702.98
2019-02-21T22:08:35.687Z,95712.91
2019-02-21T22:11:03.449Z,95701.77
2019-02-21T22:13:31.008Z,95707.25
2019-02-21T22:15:58.472Z,95712.83
2019-02-21T22:18:26.109Z,95712.39
2019-02-21T22:20:53.651Z,95714.14
2019-02-21T22:23:21.121Z,95711.72
2019-02-21T22:25:48.569Z,95715.51
2019-02-21T22:28:16.072Z,95710.52
2019-02-21T22:30:43.473Z,95715.70
2019-02-21T22:33:11.021Z,95710.39
2019-02-21T22:35:38.487Z,95709.83
2019-02-21T22:38:06.006Z,95714.02
2019-02-21T22:40:33.504Z,95712.11
2019-02-21T22:43:00.954Z,95716.12
2019-02-21T22:45:28.444Z,95714.02
2019-02-21T22:47:55.845Z,95706.00
2019-02-21T22:50:23.402Z,95714.03
2019-02-21T22:52:50.888Z,95711.72
2019-02-21T22:55:18.336Z,95714.78
2019-02-21T22:57:45.822Z,95707.92
2019-02-21T23:00:58.953Z,95705.99
2019-02-21T23:03:28.990Z,95705.64
2019-02-21T23:06:36.498Z,95708.48
2019-02-21T23:09:08.681Z,95695.88
2019-02-21T23:11:36.524Z,95705.05
2019-02-21T23:14:03.948Z,95699.31
2019-02-21T23:16:31.750Z,95699.11
2019-02-21T23:18:59.214Z,95689.60
2019-02-21T23:21:26.652Z,95697.98
2019-02-21T23:23:54.226Z,95694.57
2019-02-21T23:26:21.730Z,95686.34
2019-02-21T23:28:49.176Z,95687.09
2019-02-21T23:31:16.669Z,95691.87
2019-02-21T23:33:56.207Z,95686.14
2019-02-21T23:36:23.687Z,95686.13
2019-02-21T23:38:51.222Z,95679.67
2019-02-21T23:41:18.740Z,95682.16
2019-02-21T23:43:47.303Z,95670.08
2019-02-21T23:46:15.061Z,95670.06
2019-02-21T23:48:42.532Z,95670.86
2019-02-21T23:51:10.068Z,95670.66
2019-02-21T23:53:37.555Z,95665.11
2019-02-21T23:56:04.990Z,95662.63
2019-02-21T23:58:32.538Z,95670.50
